sensor_id;sensor_type;location;lat;lon;timestamp;P1;durP1;ratioP1;P2;durP2;ratioP2
7587;SDS011;3835;48.850;8.938;2023-04-23T00:00:35;14.10;;;13.30;;
7587;SDS011;3835;48.850;8.938;2023-04-23T00:03:03;13.47;;;12.77;;
7587;SDS011;3835;48.850;8.938;2023-04-23T00:05:34;14.57;;;13.77;;
7587;SDS011;3835;48.850;8.938;2023-04-23T00:08:01;15.40;;;14.33;;
7587;SDS011;3835;48.850;8.938;2023-04-23T00:10:30;13.17;;;12.30;;
7587;SDS011;3835;48.850;8.938;2023-04-23T00:12:58;13.27;;;12.47;;
7587;SDS011;3835;48.850;8.938;2023-04-23T00:15:26;13.60;;;12.70;;
7587;SDS011;3835;48.850;8.938;2023-04-23T00:17:53;14.47;;;13.47;;
7587;SDS011;3835;48.850;8.938;2023-04-23T00:20:20;12.57;;;11.53;;
7587;SDS011;3835;48.850;8.938;2023-04-23T00:22:47;12.97;;;12.20;;
7587;SDS011;3835;48.850;8.938;2023-04-23T00:25:13;12.77;;;12.07;;
7587;SDS011;3835;48.850;8.938;2023-04-23T00:27:40;12.50;;;11.80;;
7587;SDS011;3835;48.850;8.938;2023-04-23T00:30:08;13.73;;;12.90;;
7587;SDS011;3835;48.850;8.938;2023-04-23T00:32:36;13.40;;;12.50;;
7587;SDS011;3835;48.850;8.938;2023-04-23T00:35:03;13.87;;;13.07;;
7587;SDS011;3835;48.850;8.938;2023-04-23T00:37:30;13.37;;;12.53;;
7587;SDS011;3835;48.850;8.938;2023-04-23T00:39:57;12.77;;;11.93;;
7587;SDS011;3835;48.850;8.938;2023-04-23T00:42:24;13.10;;;12.27;;
7587;SDS011;3835;48.850;8.938;2023-04-23T00:44:51;16.70;;;15.80;;
7587;SDS011;3835;48.850;8.938;2023-04-23T00:47:19;13.33;;;12.63;;
7587;SDS011;3835;48.850;8.938;2023-04-23T00:49:46;13.37;;;12.67;;
7587;SDS011;3835;48.850;8.938;2023-04-23T00:52:15;13.57;;;12.77;;
7587;SDS011;3835;48.850;8.938;2023-04-23T00:54:41;14.00;;;13.00;;
7587;SDS011;3835;48.850;8.938;2023-04-23T00:57:08;13.77;;;12.70;;
7587;SDS011;3835;48.850;8.938;2023-04-23T00:59:36;13.73;;;12.83;;
7587;SDS011;3835;48.850;8.938;2023-04-23T01:02:03;14.27;;;13.37;;
7587;SDS011;3835;48.850;8.938;2023-04-23T01:04:31;12.90;;;12.23;;
7587;SDS011;3835;48.850;8.938;2023-04-23T01:06:58;12.87;;;12.07;;
7587;SDS011;3835;48.850;8.938;2023-04-23T01:09:26;12.17;;;11.57;;
7587;SDS011;3835;48.850;8.938;2023-04-23T01:11:56;14.30;;;13.50;;
7587;SDS011;3835;48.850;8.938;2023-04-23T01:14:26;13.57;;;12.77;;
7587;SDS011;3835;48.850;8.938;2023-04-23T01:16:53;14.20;;;13.10;;
7587;SDS011;3835;48.850;8.938;2023-04-23T01:19:20;13.30;;;12.57;;
7587;SDS011;3835;48.850;8.938;2023-04-23T01:21:49;12.73;;;11.97;;
7587;SDS011;3835;48.850;8.938;2023-04-23T01:24:18;13.57;;;12.87;;
7587;SDS011;3835;48.850;8.938;2023-04-23T01:26:45;12.30;;;11.50;;
7587;SDS011;3835;48.850;8.938;2023-04-23T01:29:12;14.60;;;13.70;;
7587;SDS011;3835;48.850;8.938;2023-04-23T01:31:39;13.87;;;13.03;;
7587;SDS011;3835;48.850;8.938;2023-04-23T01:34:07;13.97;;;13.17;;
7587;SDS011;3835;48.850;8.938;2023-04-23T01:36:34;12.60;;;11.80;;
7587;SDS011;3835;48.850;8.938;2023-04-23T01:39:01;13.23;;;12.43;;
7587;SDS011;3835;48.850;8.938;2023-04-23T01:41:29;11.87;;;11.27;;
7587;SDS011;3835;48.850;8.938;2023-04-23T01:43:56;13.37;;;12.67;;
7587;SDS011;3835;48.850;8.938;2023-04-23T01:46:23;12.80;;;12.03;;
7587;SDS011;3835;48.850;8.938;2023-04-23T01:48:50;12.43;;;11.67;;
7587;SDS011;3835;48.850;8.938;2023-04-23T01:51:17;12.60;;;11.90;;
7587;SDS011;3835;48.850;8.938;2023-04-23T01:53:44;14.80;;;13.80;;
7587;SDS011;3835;48.850;8.938;2023-04-23T01:56:11;14.30;;;13.40;;
7587;SDS011;3835;48.850;8.938;2023-04-23T01:58:41;13.43;;;12.63;;
7587;SDS011;3835;48.850;8.938;2023-04-23T02:01:08;13.23;;;12.20;;
7587;SDS011;3835;48.850;8.938;2023-04-23T02:03:34;14.03;;;13.23;;
7587;SDS011;3835;48.850;8.938;2023-04-23T02:06:01;12.73;;;12.03;;
7587;SDS011;3835;48.850;8.938;2023-04-23T02:08:29;12.73;;;12.00;;
7587;SDS011;3835;48.850;8.938;2023-04-23T02:10:56;12.53;;;11.83;;
7587;SDS011;3835;48.850;8.938;2023-04-23T02:13:22;14.30;;;13.50;;
7587;SDS011;3835;48.850;8.938;2023-04-23T02:15:50;12.30;;;11.40;;
7587;SDS011;3835;48.850;8.938;2023-04-23T02:18:17;12.37;;;11.57;;
7587;SDS011;3835;48.850;8.938;2023-04-23T02:20:44;13.17;;;12.37;;
7587;SDS011;3835;48.850;8.938;2023-04-23T02:23:11;12.87;;;12.07;;
7587;SDS011;3835;48.850;8.938;2023-04-23T02:25:38;12.17;;;11.37;;
7587;SDS011;3835;48.850;8.938;2023-04-23T02:28:05;12.93;;;12.23;;
7587;SDS011;3835;48.850;8.938;2023-04-23T02:30:32;12.73;;;12.03;;
7587;SDS011;3835;48.850;8.938;2023-04-23T02:33:00;12.90;;;12.13;;
7587;SDS011;3835;48.850;8.938;2023-04-23T02:35:27;13.40;;;12.47;;
7587;SDS011;3835;48.850;8.938;2023-04-23T02:37:55;13.63;;;12.93;;
7587;SDS011;3835;48.850;8.938;2023-04-23T02:40:22;12.43;;;11.73;;
7587;SDS011;3835;48.850;8.938;2023-04-23T02:42:49;12.73;;;12.10;;
7587;SDS011;3835;48.850;8.938;2023-04-23T02:45:16;13.67;;;13.07;;
7587;SDS011;3835;48.850;8.938;2023-04-23T02:47:42;12.17;;;11.50;;
7587;SDS011;3835;48.850;8.938;2023-04-23T02:50:11;15.67;;;14.53;;
7587;SDS011;3835;48.850;8.938;2023-04-23T02:52:38;15.03;;;14.10;;
7587;SDS011;3835;48.850;8.938;2023-04-23T02:55:05;14.17;;;13.37;;
7587;SDS011;3835;48.850;8.938;2023-04-23T02:57:33;14.00;;;13.20;;
7587;SDS011;3835;48.850;8.938;2023-04-23T03:00:00;13.97;;;13.27;;
7587;SDS011;3835;48.850;8.938;2023-04-23T03:02:29;15.97;;;14.63;;
7587;SDS011;3835;48.850;8.938;2023-04-23T03:04:56;14.40;;;13.70;;
7587;SDS011;3835;48.850;8.938;2023-04-23T03:07:24;15.00;;;14.20;;
7587;SDS011;3835;48.850;8.938;2023-04-23T03:09:51;13.77;;;13.17;;
7587;SDS011;3835;48.850;8.938;2023-04-23T03:12:18;12.90;;;12.10;;
7587;SDS011;3835;48.850;8.938;2023-04-23T03:14:45;12.77;;;12.13;;
7587;SDS011;3835;48.850;8.938;2023-04-23T03:17:12;13.40;;;12.60;;
7587;SDS011;3835;48.850;8.938;2023-04-23T03:19:38;12.37;;;11.77;;
7587;SDS011;3835;48.850;8.938;2023-04-23T03:22:05;13.17;;;12.37;;
7587;SDS011;3835;48.850;8.938;2023-04-23T03:24:33;13.27;;;12.50;;
7587;SDS011;3835;48.850;8.938;2023-04-23T03:27:00;11.30;;;10.80;;
7587;SDS011;3835;48.850;8.938;2023-04-23T03:29:27;12.53;;;11.83;;
7587;SDS011;3835;48.850;8.938;2023-04-23T03:31:53;12.03;;;11.40;;
7587;SDS011;3835;48.850;8.938;2023-04-23T03:34:20;14.40;;;13.60;;
7587;SDS011;3835;48.850;8.938;2023-04-23T03:36:47;14.03;;;13.23;;
7587;SDS011;3835;48.850;8.938;2023-04-23T03:39:15;12.67;;;11.93;;
7587;SDS011;3835;48.850;8.938;2023-04-23T03:41:43;11.30;;;10.80;;
7587;SDS011;3835;48.850;8.938;2023-04-23T03:44:09;11.73;;;11.23;;
7587;SDS011;3835;48.850;8.938;2023-04-23T03:46:36;13.60;;;12.83;;
7587;SDS011;3835;48.850;8.938;2023-04-23T03:49:03;10.87;;;10.37;;
7587;SDS011;3835;48.850;8.938;2023-04-23T03:51:30;12.93;;;12.33;;
7587;SDS011;3835;48.850;8.938;2023-04-23T03:53:57;10.77;;;10.27;;
7587;SDS011;3835;48.850;8.938;2023-04-23T03:56:23;11.67;;;11.10;;
7587;SDS011;3835;48.850;8.938;2023-04-23T03:58:52;12.30;;;11.80;;
7587;SDS011;3835;48.850;8.938;2023-04-23T04:01:18;12.57;;;11.87;;
7587;SDS011;3835;48.850;8.938;2023-04-23T04:03:45;11.77;;;11.27;;
7587;SDS011;3835;48.850;8.938;2023-04-23T04:06:12;12.50;;;11.80;;
7587;SDS011;3835;48.850;8.938;2023-04-23T04:08:39;12.40;;;11.43;;
7587;SDS011;3835;48.850;8.938;2023-04-23T04:11:05;13.33;;;12.63;;
7587;SDS011;3835;48.850;8.938;2023-04-23T04:13:32;12.87;;;12.20;;
7587;SDS011;3835;48.850;8.938;2023-04-23T04:16:00;12.27;;;11.67;;
7587;SDS011;3835;48.850;8.938;2023-04-23T04:18:27;11.93;;;11.23;;
7587;SDS011;3835;48.850;8.938;2023-04-23T04:20:54;12.03;;;11.43;;
7587;SDS011;3835;48.850;8.938;2023-04-23T04:23:20;11.57;;;11.03;;
7587;SDS011;3835;48.850;8.938;2023-04-23T04:25:47;12.43;;;11.83;;
7587;SDS011;3835;48.850;8.938;2023-04-23T04:28:15;11.80;;;11.13;;
7587;SDS011;3835;48.850;8.938;2023-04-23T04:30:42;10.67;;;10.17;;
7587;SDS011;3835;48.850;8.938;2023-04-23T04:33:10;10.93;;;10.43;;
7587;SDS011;3835;48.850;8.938;2023-04-23T04:35:39;10.57;;;10.07;;
7587;SDS011;3835;48.850;8.938;2023-04-23T04:38:05;10.97;;;10.57;;
7587;SDS011;3835;48.850;8.938;2023-04-23T04:40:33;11.67;;;11.17;;
7587;SDS011;3835;48.850;8.938;2023-04-23T04:42:59;11.30;;;10.80;;
7587;SDS011;3835;48.850;8.938;2023-04-23T04:45:29;11.33;;;10.83;;
7587;SDS011;3835;48.850;8.938;2023-04-23T04:47:56;11.17;;;10.57;;
7587;SDS011;3835;48.850;8.938;2023-04-23T04:50:24;11.33;;;10.83;;
7587;SDS011;3835;48.850;8.938;2023-04-23T04:52:51;11.70;;;11.13;;
7587;SDS011;3835;48.850;8.938;2023-04-23T04:55:18;11.57;;;11.07;;
7587;SDS011;3835;48.850;8.938;2023-04-23T04:57:44;11.73;;;11.07;;
7587;SDS011;3835;48.850;8.938;2023-04-23T05:00:18;15.70;;;14.90;;
7587;SDS011;3835;48.850;8.938;2023-04-23T05:02:46;11.50;;;10.97;;
7587;SDS011;3835;48.850;8.938;2023-04-23T05:05:13;11.03;;;10.53;;
7587;SDS011;3835;48.850;8.938;2023-04-23T05:07:42;11.47;;;10.97;;
7587;SDS011;3835;48.850;8.938;2023-04-23T05:10:09;11.03;;;10.53;;
7587;SDS011;3835;48.850;8.938;2023-04-23T05:12:36;11.17;;;10.63;;
7587;SDS011;3835;48.850;8.938;2023-04-23T05:15:06;11.10;;;10.63;;
7587;SDS011;3835;48.850;8.938;2023-04-23T05:17:33;12.60;;;12.00;;
7587;SDS011;3835;48.850;8.938;2023-04-23T05:20:00;10.13;;;9.73;;
7587;SDS011;3835;48.850;8.938;2023-04-23T05:22:27;12.00;;;11.40;;
7587;SDS011;3835;48.850;8.938;2023-04-23T05:24:55;11.63;;;11.10;;
7587;SDS011;3835;48.850;8.938;2023-04-23T05:27:22;13.30;;;12.70;;
7587;SDS011;3835;48.850;8.938;2023-04-23T05:29:49;12.00;;;11.37;;
7587;SDS011;3835;48.850;8.938;2023-04-23T05:32:16;12.87;;;12.20;;
7587;SDS011;3835;48.850;8.938;2023-04-23T05:34:43;14.87;;;14.23;;
7587;SDS011;3835;48.850;8.938;2023-04-23T05:37:09;15.37;;;14.47;;
7587;SDS011;3835;48.850;8.938;2023-04-23T05:39:36;12.90;;;12.20;;
7587;SDS011;3835;48.850;8.938;2023-04-23T05:42:04;12.23;;;11.73;;
7587;SDS011;3835;48.850;8.938;2023-04-23T05:44:31;12.63;;;12.10;;
7587;SDS011;3835;48.850;8.938;2023-04-23T05:46:58;12.67;;;12.07;;
7587;SDS011;3835;48.850;8.938;2023-04-23T05:49:24;13.27;;;12.67;;
7587;SDS011;3835;48.850;8.938;2023-04-23T05:51:52;11.93;;;11.43;;
7587;SDS011;3835;48.850;8.938;2023-04-23T05:54:18;12.40;;;11.80;;
7587;SDS011;3835;48.850;8.938;2023-04-23T05:56:45;13.27;;;12.67;;
7587;SDS011;3835;48.850;8.938;2023-04-23T05:59:13;13.13;;;12.53;;
7587;SDS011;3835;48.850;8.938;2023-04-23T06:01:40;14.17;;;13.57;;
7587;SDS011;3835;48.850;8.938;2023-04-23T06:04:07;13.70;;;13.10;;
7587;SDS011;3835;48.850;8.938;2023-04-23T06:06:34;11.60;;;11.10;;
7587;SDS011;3835;48.850;8.938;2023-04-23T06:09:01;11.70;;;11.10;;
7587;SDS011;3835;48.850;8.938;2023-04-23T06:11:28;11.40;;;10.93;;
7587;SDS011;3835;48.850;8.938;2023-04-23T06:13:56;13.40;;;12.80;;
7587;SDS011;3835;48.850;8.938;2023-04-23T06:16:24;11.97;;;11.47;;
7587;SDS011;3835;48.850;8.938;2023-04-23T06:18:51;10.87;;;10.37;;
7587;SDS011;3835;48.850;8.938;2023-04-23T06:21:18;10.47;;;10.07;;
7587;SDS011;3835;48.850;8.938;2023-04-23T06:23:45;12.83;;;12.33;;
7587;SDS011;3835;48.850;8.938;2023-04-23T06:26:11;14.83;;;14.23;;
7587;SDS011;3835;48.850;8.938;2023-04-23T06:28:40;12.67;;;12.07;;
7587;SDS011;3835;48.850;8.938;2023-04-23T06:31:07;13.20;;;12.70;;
7587;SDS011;3835;48.850;8.938;2023-04-23T06:33:36;11.97;;;11.47;;
7587;SDS011;3835;48.850;8.938;2023-04-23T06:36:03;12.27;;;11.57;;
7587;SDS011;3835;48.850;8.938;2023-04-23T06:38:30;16.13;;;15.47;;
7587;SDS011;3835;48.850;8.938;2023-04-23T06:40:57;11.37;;;10.87;;
7587;SDS011;3835;48.850;8.938;2023-04-23T06:43:24;11.43;;;11.03;;
7587;SDS011;3835;48.850;8.938;2023-04-23T06:45:50;12.93;;;12.37;;
7587;SDS011;3835;48.850;8.938;2023-04-23T06:48:17;11.47;;;11.07;;
7587;SDS011;3835;48.850;8.938;2023-04-23T06:50:47;10.80;;;10.30;;
7587;SDS011;3835;48.850;8.938;2023-04-23T06:53:14;15.53;;;14.93;;
7587;SDS011;3835;48.850;8.938;2023-04-23T06:55:41;14.90;;;14.00;;
7587;SDS011;3835;48.850;8.938;2023-04-23T06:58:08;14.83;;;14.17;;
7587;SDS011;3835;48.850;8.938;2023-04-23T07:00:35;15.97;;;15.30;;
7587;SDS011;3835;48.850;8.938;2023-04-23T07:03:02;15.13;;;14.53;;
7587;SDS011;3835;48.850;8.938;2023-04-23T07:05:29;15.33;;;14.73;;
7587;SDS011;3835;48.850;8.938;2023-04-23T07:07:57;14.83;;;14.23;;
7587;SDS011;3835;48.850;8.938;2023-04-23T07:10:24;14.77;;;14.07;;
7587;SDS011;3835;48.850;8.938;2023-04-23T07:12:50;13.13;;;12.57;;
7587;SDS011;3835;48.850;8.938;2023-04-23T07:15:17;13.63;;;13.03;;
7587;SDS011;3835;48.850;8.938;2023-04-23T07:17:44;13.23;;;12.73;;
7587;SDS011;3835;48.850;8.938;2023-04-23T07:20:12;11.57;;;11.07;;
7587;SDS011;3835;48.850;8.938;2023-04-23T07:22:39;14.50;;;13.90;;
7587;SDS011;3835;48.850;8.938;2023-04-23T07:25:07;14.53;;;13.90;;
7587;SDS011;3835;48.850;8.938;2023-04-23T07:27:34;13.40;;;12.80;;
7587;SDS011;3835;48.850;8.938;2023-04-23T07:30:01;14.50;;;13.83;;
7587;SDS011;3835;48.850;8.938;2023-04-23T07:32:29;12.03;;;11.53;;
7587;SDS011;3835;48.850;8.938;2023-04-23T07:34:55;13.17;;;12.67;;
7587;SDS011;3835;48.850;8.938;2023-04-23T07:37:22;15.30;;;14.70;;
7587;SDS011;3835;48.850;8.938;2023-04-23T07:39:49;15.90;;;15.20;;
7587;SDS011;3835;48.850;8.938;2023-04-23T07:42:19;16.00;;;15.30;;
7587;SDS011;3835;48.850;8.938;2023-04-23T07:44:45;16.20;;;15.50;;
7587;SDS011;3835;48.850;8.938;2023-04-23T07:47:12;15.73;;;15.13;;
7587;SDS011;3835;48.850;8.938;2023-04-23T07:49:39;15.83;;;15.23;;
7587;SDS011;3835;48.850;8.938;2023-04-23T07:52:06;17.43;;;16.73;;
7587;SDS011;3835;48.850;8.938;2023-04-23T07:54:33;16.83;;;16.17;;
7587;SDS011;3835;48.850;8.938;2023-04-23T07:56:59;16.13;;;15.53;;
7587;SDS011;3835;48.850;8.938;2023-04-23T07:59:28;15.53;;;14.87;;
7587;SDS011;3835;48.850;8.938;2023-04-23T08:01:55;14.67;;;13.93;;
7587;SDS011;3835;48.850;8.938;2023-04-23T08:04:22;12.77;;;12.27;;
7587;SDS011;3835;48.850;8.938;2023-04-23T08:06:48;15.20;;;14.60;;
7587;SDS011;3835;48.850;8.938;2023-04-23T08:09:15;14.23;;;13.63;;
7587;SDS011;3835;48.850;8.938;2023-04-23T08:11:43;12.50;;;12.00;;
7587;SDS011;3835;48.850;8.938;2023-04-23T08:14:10;12.27;;;11.77;;
7587;SDS011;3835;48.850;8.938;2023-04-23T08:16:38;12.90;;;12.40;;
7587;SDS011;3835;48.850;8.938;2023-04-23T08:19:05;12.20;;;11.63;;
7587;SDS011;3835;48.850;8.938;2023-04-23T08:21:32;16.20;;;15.50;;
7587;SDS011;3835;48.850;8.938;2023-04-23T08:23:59;18.30;;;17.40;;
7587;SDS011;3835;48.850;8.938;2023-04-23T08:26:26;14.23;;;13.60;;
7587;SDS011;3835;48.850;8.938;2023-04-23T08:28:53;14.27;;;13.67;;
7587;SDS011;3835;48.850;8.938;2023-04-23T08:31:21;12.90;;;12.40;;
7587;SDS011;3835;48.850;8.938;2023-04-23T08:33:49;13.47;;;12.97;;
7587;SDS011;3835;48.850;8.938;2023-04-23T08:36:16;13.83;;;13.13;;
7587;SDS011;3835;48.850;8.938;2023-04-23T08:38:42;12.17;;;11.67;;
7587;SDS011;3835;48.850;8.938;2023-04-23T08:41:09;13.20;;;12.63;;
7587;SDS011;3835;48.850;8.938;2023-04-23T08:43:41;13.37;;;12.77;;
7587;SDS011;3835;48.850;8.938;2023-04-23T08:46:12;14.00;;;13.40;;
7587;SDS011;3835;48.850;8.938;2023-04-23T08:48:40;15.93;;;15.23;;
7587;SDS011;3835;48.850;8.938;2023-04-23T08:51:10;14.43;;;13.83;;
7587;SDS011;3835;48.850;8.938;2023-04-23T08:53:43;13.43;;;12.83;;
7587;SDS011;3835;48.850;8.938;2023-04-23T08:56:11;13.23;;;12.63;;
7587;SDS011;3835;48.850;8.938;2023-04-23T08:58:39;14.50;;;13.90;;
7587;SDS011;3835;48.850;8.938;2023-04-23T09:01:08;14.40;;;13.70;;
7587;SDS011;3835;48.850;8.938;2023-04-23T09:03:35;12.90;;;12.30;;
7587;SDS011;3835;48.850;8.938;2023-04-23T09:06:02;14.53;;;13.93;;
7587;SDS011;3835;48.850;8.938;2023-04-23T09:08:31;13.80;;;13.20;;
7587;SDS011;3835;48.850;8.938;2023-04-23T09:10:59;13.00;;;12.40;;
7587;SDS011;3835;48.850;8.938;2023-04-23T09:13:27;12.53;;;12.03;;
7587;SDS011;3835;48.850;8.938;2023-04-23T09:15:56;12.80;;;12.30;;
7587;SDS011;3835;48.850;8.938;2023-04-23T09:18:23;11.97;;;11.33;;
7587;SDS011;3835;48.850;8.938;2023-04-23T09:20:50;16.70;;;16.00;;
7587;SDS011;3835;48.850;8.938;2023-04-23T09:23:19;13.27;;;12.57;;
7587;SDS011;3835;48.850;8.938;2023-04-23T09:25:48;11.87;;;11.37;;
7587;SDS011;3835;48.850;8.938;2023-04-23T09:28:15;12.73;;;12.23;;
7587;SDS011;3835;48.850;8.938;2023-04-23T09:30:42;13.07;;;12.50;;
7587;SDS011;3835;48.850;8.938;2023-04-23T09:33:09;12.93;;;12.43;;
7587;SDS011;3835;48.850;8.938;2023-04-23T09:35:37;14.03;;;13.43;;
7587;SDS011;3835;48.850;8.938;2023-04-23T09:38:06;13.70;;;13.10;;
7587;SDS011;3835;48.850;8.938;2023-04-23T09:40:34;13.97;;;13.23;;
7587;SDS011;3835;48.850;8.938;2023-04-23T09:43:04;11.73;;;11.13;;
7587;SDS011;3835;48.850;8.938;2023-04-23T09:45:31;10.97;;;10.47;;
7587;SDS011;3835;48.850;8.938;2023-04-23T09:48:00;19.77;;;18.97;;
7587;SDS011;3835;48.850;8.938;2023-04-23T09:50:33;16.23;;;15.53;;
7587;SDS011;3835;48.850;8.938;2023-04-23T09:53:02;13.00;;;12.50;;
7587;SDS011;3835;48.850;8.938;2023-04-23T09:55:30;12.73;;;12.00;;
7587;SDS011;3835;48.850;8.938;2023-04-23T09:57:59;12.63;;;12.10;;
7587;SDS011;3835;48.850;8.938;2023-04-23T10:00:31;14.17;;;13.57;;
7587;SDS011;3835;48.850;8.938;2023-04-23T10:02:58;17.47;;;16.77;;
7587;SDS011;3835;48.850;8.938;2023-04-23T10:05:26;13.27;;;12.67;;
7587;SDS011;3835;48.850;8.938;2023-04-23T10:07:53;12.70;;;12.10;;
7587;SDS011;3835;48.850;8.938;2023-04-23T10:10:21;12.83;;;12.33;;
7587;SDS011;3835;48.850;8.938;2023-04-23T10:12:49;12.97;;;12.47;;
7587;SDS011;3835;48.850;8.938;2023-04-23T10:15:17;13.00;;;12.50;;
7587;SDS011;3835;48.850;8.938;2023-04-23T10:17:45;12.17;;;11.57;;
7587;SDS011;3835;48.850;8.938;2023-04-23T10:20:13;13.33;;;12.73;;
7587;SDS011;3835;48.850;8.938;2023-04-23T10:22:41;13.93;;;13.33;;
7587;SDS011;3835;48.850;8.938;2023-04-23T10:25:11;14.87;;;14.17;;
7587;SDS011;3835;48.850;8.938;2023-04-23T10:27:39;12.27;;;11.37;;
7587;SDS011;3835;48.850;8.938;2023-04-23T10:30:07;13.10;;;12.53;;
7587;SDS011;3835;48.850;8.938;2023-04-23T10:32:35;13.97;;;13.40;;
7587;SDS011;3835;48.850;8.938;2023-04-23T10:35:05;16.13;;;15.40;;
7587;SDS011;3835;48.850;8.938;2023-04-23T10:37:33;14.27;;;13.60;;
7587;SDS011;3835;48.850;8.938;2023-04-23T10:40:03;11.40;;;10.90;;
7587;SDS011;3835;48.850;8.938;2023-04-23T10:42:35;10.40;;;9.87;;
7587;SDS011;3835;48.850;8.938;2023-04-23T10:45:07;11.40;;;10.90;;
7587;SDS011;3835;48.850;8.938;2023-04-23T10:47:38;13.27;;;12.67;;
7587;SDS011;3835;48.850;8.938;2023-04-23T10:53:00;12.37;;;11.67;;
7587;SDS011;3835;48.850;8.938;2023-04-23T10:55:28;12.37;;;11.87;;
7587;SDS011;3835;48.850;8.938;2023-04-23T10:57:57;12.80;;;12.30;;
7587;SDS011;3835;48.850;8.938;2023-04-23T11:00:25;13.33;;;12.77;;
7587;SDS011;3835;48.850;8.938;2023-04-23T11:02:52;11.80;;;11.30;;
7587;SDS011;3835;48.850;8.938;2023-04-23T11:05:20;13.13;;;12.53;;
7587;SDS011;3835;48.850;8.938;2023-04-23T11:08:05;12.17;;;11.67;;
7587;SDS011;3835;48.850;8.938;2023-04-23T11:10:32;13.80;;;13.20;;
7587;SDS011;3835;48.850;8.938;2023-04-23T11:13:19;29.37;;;19.60;;
7587;SDS011;3835;48.850;8.938;2023-04-23T11:15:47;12.67;;;12.07;;
7587;SDS011;3835;48.850;8.938;2023-04-23T11:18:14;11.67;;;11.07;;
7587;SDS011;3835;48.850;8.938;2023-04-23T11:20:41;11.00;;;10.50;;
7587;SDS011;3835;48.850;8.938;2023-04-23T11:23:09;12.00;;;11.47;;
7587;SDS011;3835;48.850;8.938;2023-04-23T11:25:56;10.80;;;10.30;;
7587;SDS011;3835;48.850;8.938;2023-04-23T11:28:24;11.67;;;11.17;;
7587;SDS011;3835;48.850;8.938;2023-04-23T11:30:52;10.03;;;9.53;;
7587;SDS011;3835;48.850;8.938;2023-04-23T11:33:19;11.17;;;10.67;;
7587;SDS011;3835;48.850;8.938;2023-04-23T11:35:47;10.47;;;9.97;;
7587;SDS011;3835;48.850;8.938;2023-04-23T11:38:15;11.40;;;10.93;;
7587;SDS011;3835;48.850;8.938;2023-04-23T11:40:44;10.20;;;9.80;;
7587;SDS011;3835;48.850;8.938;2023-04-23T11:43:17;11.17;;;10.70;;
7587;SDS011;3835;48.850;8.938;2023-04-23T11:45:45;11.53;;;11.03;;
7587;SDS011;3835;48.850;8.938;2023-04-23T11:48:12;11.03;;;10.63;;
7587;SDS011;3835;48.850;8.938;2023-04-23T11:50:38;11.00;;;10.47;;
7587;SDS011;3835;48.850;8.938;2023-04-23T11:53:10;9.93;;;9.53;;
7587;SDS011;3835;48.850;8.938;2023-04-23T11:55:39;10.53;;;10.03;;
7587;SDS011;3835;48.850;8.938;2023-04-23T11:58:08;11.13;;;10.73;;
7587;SDS011;3835;48.850;8.938;2023-04-23T12:00:35;11.10;;;10.60;;
7587;SDS011;3835;48.850;8.938;2023-04-23T12:03:02;11.80;;;11.17;;
7587;SDS011;3835;48.850;8.938;2023-04-23T12:05:30;11.07;;;10.57;;
7587;SDS011;3835;48.850;8.938;2023-04-23T12:08:05;12.57;;;11.87;;
7587;SDS011;3835;48.850;8.938;2023-04-23T12:10:40;10.83;;;10.43;;
7587;SDS011;3835;48.850;8.938;2023-04-23T12:13:12;11.13;;;10.63;;
7587;SDS011;3835;48.850;8.938;2023-04-23T12:15:43;10.47;;;10.03;;
7587;SDS011;3835;48.850;8.938;2023-04-23T12:18:11;10.77;;;10.37;;
7587;SDS011;3835;48.850;8.938;2023-04-23T12:20:38;9.63;;;9.23;;
7587;SDS011;3835;48.850;8.938;2023-04-23T12:23:05;9.27;;;8.87;;
7587;SDS011;3835;48.850;8.938;2023-04-23T12:25:32;10.13;;;9.73;;
7587;SDS011;3835;48.850;8.938;2023-04-23T12:28:00;9.97;;;9.57;;
7587;SDS011;3835;48.850;8.938;2023-04-23T12:30:28;10.93;;;10.43;;
7587;SDS011;3835;48.850;8.938;2023-04-23T12:32:58;12.50;;;11.73;;
7587;SDS011;3835;48.850;8.938;2023-04-23T12:35:36;13.63;;;13.10;;
7587;SDS011;3835;48.850;8.938;2023-04-23T12:38:04;10.77;;;10.37;;
7587;SDS011;3835;48.850;8.938;2023-04-23T12:40:31;10.70;;;10.30;;
7587;SDS011;3835;48.850;8.938;2023-04-23T12:42:58;11.03;;;10.53;;
7587;SDS011;3835;48.850;8.938;2023-04-23T12:45:35;10.33;;;9.93;;
7587;SDS011;3835;48.850;8.938;2023-04-23T12:48:02;11.13;;;10.63;;
7587;SDS011;3835;48.850;8.938;2023-04-23T12:50:29;12.07;;;11.53;;
7587;SDS011;3835;48.850;8.938;2023-04-23T12:52:55;14.03;;;13.40;;
7587;SDS011;3835;48.850;8.938;2023-04-23T12:55:22;11.87;;;11.37;;
7587;SDS011;3835;48.850;8.938;2023-04-23T12:57:49;11.93;;;11.23;;
7587;SDS011;3835;48.850;8.938;2023-04-23T13:00:16;11.93;;;11.43;;
7587;SDS011;3835;48.850;8.938;2023-04-23T13:02:44;12.27;;;11.77;;
7587;SDS011;3835;48.850;8.938;2023-04-23T13:05:11;13.23;;;12.73;;
7587;SDS011;3835;48.850;8.938;2023-04-23T13:07:37;12.00;;;11.50;;
7587;SDS011;3835;48.850;8.938;2023-04-23T13:10:04;12.10;;;11.60;;
7587;SDS011;3835;48.850;8.938;2023-04-23T13:12:32;11.87;;;11.37;;
7587;SDS011;3835;48.850;8.938;2023-04-23T13:14:59;10.67;;;10.27;;
7587;SDS011;3835;48.850;8.938;2023-04-23T13:17:25;11.00;;;10.60;;
7587;SDS011;3835;48.850;8.938;2023-04-23T13:19:54;13.07;;;12.57;;
7587;SDS011;3835;48.850;8.938;2023-04-23T13:22:21;11.23;;;10.73;;
7587;SDS011;3835;48.850;8.938;2023-04-23T13:24:52;12.30;;;11.80;;
7587;SDS011;3835;48.850;8.938;2023-04-23T13:27:19;12.17;;;11.67;;
7587;SDS011;3835;48.850;8.938;2023-04-23T13:29:46;12.27;;;11.77;;
7587;SDS011;3835;48.850;8.938;2023-04-23T13:32:12;10.40;;;9.87;;
7587;SDS011;3835;48.850;8.938;2023-04-23T13:34:40;11.20;;;10.80;;
7587;SDS011;3835;48.850;8.938;2023-04-23T13:37:08;10.80;;;10.17;;
7587;SDS011;3835;48.850;8.938;2023-04-23T13:39:35;10.30;;;9.90;;
7587;SDS011;3835;48.850;8.938;2023-04-23T13:42:02;11.73;;;11.23;;
7587;SDS011;3835;48.850;8.938;2023-04-23T13:44:29;11.27;;;10.77;;
7587;SDS011;3835;48.850;8.938;2023-04-23T13:46:56;10.17;;;9.67;;
7587;SDS011;3835;48.850;8.938;2023-04-23T13:49:23;11.27;;;10.63;;
7587;SDS011;3835;48.850;8.938;2023-04-23T13:51:50;9.83;;;9.43;;
7587;SDS011;3835;48.850;8.938;2023-04-23T13:54:19;11.73;;;11.20;;
7587;SDS011;3835;48.850;8.938;2023-04-23T13:56:46;10.33;;;9.93;;
7587;SDS011;3835;48.850;8.938;2023-04-23T13:59:13;9.70;;;9.30;;
7587;SDS011;3835;48.850;8.938;2023-04-23T14:01:40;11.00;;;10.60;;
7587;SDS011;3835;48.850;8.938;2023-04-23T14:04:06;10.63;;;10.07;;
7587;SDS011;3835;48.850;8.938;2023-04-23T14:06:33;9.90;;;9.50;;
7587;SDS011;3835;48.850;8.938;2023-04-23T14:09:00;11.17;;;10.57;;
7587;SDS011;3835;48.850;8.938;2023-04-23T14:11:28;9.47;;;9.03;;
7587;SDS011;3835;48.850;8.938;2023-04-23T14:13:55;9.57;;;9.07;;
7587;SDS011;3835;48.850;8.938;2023-04-23T14:16:22;10.60;;;10.10;;
7587;SDS011;3835;48.850;8.938;2023-04-23T14:18:49;10.40;;;9.90;;
7587;SDS011;3835;48.850;8.938;2023-04-23T14:21:15;10.33;;;9.93;;
7587;SDS011;3835;48.850;8.938;2023-04-23T14:23:54;10.00;;;9.50;;
7587;SDS011;3835;48.850;8.938;2023-04-23T14:26:27;9.57;;;9.17;;
7587;SDS011;3835;48.850;8.938;2023-04-23T14:29:08;9.93;;;9.53;;
7587;SDS011;3835;48.850;8.938;2023-04-23T14:31:36;10.93;;;10.47;;
7587;SDS011;3835;48.850;8.938;2023-04-23T14:34:03;11.13;;;10.63;;
7587;SDS011;3835;48.850;8.938;2023-04-23T14:36:30;10.40;;;9.90;;
7587;SDS011;3835;48.850;8.938;2023-04-23T14:38:57;10.60;;;10.20;;
7587;SDS011;3835;48.850;8.938;2023-04-23T14:41:28;10.43;;;9.93;;
7587;SDS011;3835;48.850;8.938;2023-04-23T14:43:57;10.73;;;10.33;;
7587;SDS011;3835;48.850;8.938;2023-04-23T14:46:24;10.33;;;9.77;;
7587;SDS011;3835;48.850;8.938;2023-04-23T14:48:51;9.67;;;9.20;;
7587;SDS011;3835;48.850;8.938;2023-04-23T14:51:18;9.57;;;9.17;;
7587;SDS011;3835;48.850;8.938;2023-04-23T14:53:45;10.37;;;9.87;;
7587;SDS011;3835;48.850;8.938;2023-04-23T14:56:11;11.10;;;10.57;;